createdAt,value
2019-04-20T00:00:23.272Z,1023.25
2019-04-20T00:01:28.054Z,1023.26
2019-04-20T00:02:24.069Z,1023.22
2019-04-20T00:03:26.024Z,1023.23
2019-04-20T00:04:27.201Z,1023.22
2019-04-20T00:05:23.265Z,1023.23
2019-04-20T00:06:22.632Z,1023.20
2019-04-20T00:07:24.635Z,1023.20
2019-04-20T00:08:26.509Z,1023.18
2019-04-20T00:09:26.605Z,1023.20
2019-04-20T00:10:24.636Z,1023.20
2019-04-20T00:11:28.369Z,1023.18
2019-04-20T00:12:34.328Z,1023.18
2019-04-20T00:13:34.570Z,1023.17
2019-04-20T00:14:27.663Z,1023.22
2019-04-20T00:15:23.963Z,1023.20
2019-04-20T00:16:23.084Z,1023.18
2019-04-20T00:17:22.600Z,1023.14
2019-04-20T00:18:28.049Z,1023.17
2019-04-20T00:19:30.230Z,1023.17
2019-04-20T00:20:27.876Z,1023.18
2019-04-20T00:21:22.761Z,1023.20
2019-04-20T00:22:24.644Z,1023.15
2019-04-20T00:23:29.289Z,1023.16
2019-04-20T00:24:27.590Z,1023.16
2019-04-20T00:25:25.464Z,1023.17
2019-04-20T00:26:44.288Z,1023.17
2019-04-20T00:27:43.135Z,1023.17
2019-04-20T00:28:40.807Z,1023.16
2019-04-20T00:29:41.087Z,1023.16
2019-04-20T00:30:40.093Z,1023.10
2019-04-20T00:31:36.035Z,1023.13
2019-04-20T00:32:40.037Z,1023.13
2019-04-20T00:33:37.070Z,1023.11
2019-04-20T00:34:29.464Z,1023.13
2019-04-20T00:35:23.069Z,1023.08
2019-04-20T00:36:22.727Z,1023.07
2019-04-20T00:37:23.382Z,1023.12
2019-04-20T00:38:25.905Z,1023.10
2019-04-20T00:39:23.822Z,1023.12
2019-04-20T00:40:23.696Z,1023.11
2019-04-20T00:41:24.089Z,1023.12
2019-04-20T00:42:30.799Z,1023.10
2019-04-20T00:43:28.328Z,1023.08
2019-04-20T00:44:28.699Z,1023.11
2019-04-20T00:45:27.473Z,1023.10
2019-04-20T00:46:29.240Z,1023.13
2019-04-20T00:47:34.326Z,1023.08
2019-04-20T00:48:33.735Z,1023.12
2019-04-20T00:49:34.998Z,1023.08
2019-04-20T00:50:36.696Z,1023.10
2019-04-20T00:51:39.541Z,1023.07
2019-04-20T00:52:35.689Z,1023.10
2019-04-20T00:53:31.437Z,1023.10
2019-04-20T00:54:22.703Z,1023.06
2019-04-20T00:55:23.223Z,1023.08
2019-04-20T00:56:22.498Z,1023.13
2019-04-20T00:57:33.959Z,1023.09
2019-04-20T00:58:28.899Z,1023.13
2019-04-20T00:59:35.495Z,1023.15
2019-04-20T01:00:37.194Z,1023.14
2019-04-20T01:01:43.583Z,1023.13
2019-04-20T01:02:37.201Z,1023.15
2019-04-20T01:03:38.996Z,1023.12
2019-04-20T01:04:41.642Z,1023.11
2019-04-20T01:05:39.400Z,1023.13
2019-04-20T01:06:36.582Z,1023.15
2019-04-20T01:07:32.909Z,1023.12
2019-04-20T01:08:23.340Z,1023.19
2019-04-20T01:09:22.425Z,1023.19
2019-04-20T01:10:23.671Z,1023.16
2019-04-20T01:11:28.894Z,1023.13
2019-04-20T01:12:26.029Z,1023.14
2019-04-20T01:13:24.835Z,1023.15
2019-04-20T01:14:27.250Z,1023.17
2019-04-20T01:15:32.297Z,1023.20
2019-04-20T01:16:34.547Z,1023.22
2019-04-20T01:17:22.392Z,1023.21
2019-04-20T01:18:22.399Z,1023.18
2019-04-20T01:19:22.391Z,1023.18
2019-04-20T01:20:26.214Z,1023.21
2019-04-20T01:21:25.344Z,1023.19
2019-04-20T01:22:25.455Z,1023.18
2019-04-20T01:23:25.370Z,1023.22
2019-04-20T01:24:30.854Z,1023.20
2019-04-20T01:25:29.112Z,1023.21
2019-04-20T01:26:23.148Z,1023.20
2019-04-20T01:27:36.371Z,1023.24
2019-04-20T01:28:32.353Z,1023.24
2019-04-20T01:29:32.406Z,1023.25
2019-04-20T01:30:30.167Z,1023.25
2019-04-20T01:31:32.449Z,1023.24
2019-04-20T01:32:32.010Z,1023.27
2019-04-20T01:33:34.333Z,1023.27
2019-04-20T01:34:37.863Z,1023.25
2019-04-20T01:35:40.969Z,1023.22
2019-04-20T01:36:43.137Z,1023.23
2019-04-20T01:37:32.823Z,1023.25
2019-04-20T01:38:40.138Z,1023.26
2019-04-20T01:39:34.071Z,1023.28
2019-04-20T01:40:23.212Z,1023.28
2019-04-20T01:41:22.483Z,1023.26
2019-04-20T01:42:23.441Z,1023.29
2019-04-20T01:43:22.732Z,1023.30
2019-04-20T01:44:28.437Z,1023.30
2019-04-20T01:45:28.889Z,1023.30
2019-04-20T01:46:26.315Z,1023.32
2019-04-20T01:47:23.851Z,1023.29
2019-04-20T01:48:30.097Z,1023.33
2019-04-20T01:49:27.063Z,1023.33
2019-04-20T01:50:27.695Z,1023.33
2019-04-20T01:51:27.152Z,1023.32
2019-04-20T01:52:26.969Z,1023.37
2019-04-20T01:53:39.259Z,1023.37
2019-04-20T01:54:42.263Z,1023.36
2019-04-20T01:55:41.492Z,1023.35
2019-04-20T01:56:36.162Z,1023.35
2019-04-20T01:57:32.217Z,1023.36
2019-04-20T01:58:39.831Z,1023.34
2019-04-20T01:59:34.784Z,1023.38
2019-04-20T02:00:29.475Z,1023.33
2019-04-20T02:01:27.462Z,1023.33
2019-04-20T02:02:24.439Z,1023.36
2019-04-20T02:03:30.534Z,1023.37
2019-04-20T02:04:27.895Z,1023.38
2019-04-20T02:05:29.070Z,1023.37
2019-04-20T02:06:25.092Z,1023.37
2019-04-20T02:07:28.452Z,1023.37
2019-04-20T02:08:25.865Z,1023.37
2019-04-20T02:09:26.014Z,1023.38
2019-04-20T02:10:31.868Z,1023.38
2019-04-20T02:11:30.561Z,1023.35
2019-04-20T02:12:28.448Z,1023.37
2019-04-20T02:13:27.309Z,1023.38
2019-04-20T02:14:28.742Z,1023.40
2019-04-20T02:15:31.003Z,1023.38
2019-04-20T02:16:28.886Z,1023.38
2019-04-20T02:17:33.066Z,1023.41
2019-04-20T02:18:33.736Z,1023.37
2019-04-20T02:19:35.710Z,1023.37
2019-04-20T02:20:37.586Z,1023.40
2019-04-20T02:21:40.902Z,1023.40
2019-04-20T02:22:37.281Z,1023.42
2019-04-20T02:23:33.816Z,1023.42
2019-04-20T02:24:22.159Z,1023.41
2019-04-20T02:25:22.707Z,1023.46
2019-04-20T02:26:22.341Z,1023.47
2019-04-20T02:27:29.973Z,1023.42
2019-04-20T02:28:38.300Z,1023.41
2019-04-20T02:29:46.243Z,1023.45
2019-04-20T02:30:55.565Z,1023.43
2019-04-20T02:32:08.519Z,1023.42
2019-04-20T02:32:55.624Z,1023.43
2019-04-20T02:34:55.512Z,1023.40
2019-04-20T02:36:04.670Z,1023.48
2019-04-20T02:38:12.154Z,1023.43
2019-04-20T02:39:13.388Z,1023.48
2019-04-20T02:39:54.310Z,1023.47
2019-04-20T02:42:57.888Z,1023.47
2019-04-20T02:44:08.608Z,1023.47
2019-04-20T02:45:00.752Z,1023.50
2019-04-20T02:45:50.907Z,1023.47
2019-04-20T02:46:55.378Z,1023.45
2019-04-20T02:47:58.130Z,1023.44
2019-04-20T02:49:01.041Z,1023.43
2019-04-20T02:49:56.758Z,1023.46
2019-04-20T02:50:54.458Z,1023.46
2019-04-20T02:51:52.671Z,1023.43
2019-04-20T02:52:56.740Z,1023.42
2019-04-20T02:54:06.326Z,1023.47
2019-04-20T02:55:07.982Z,1023.47
2019-04-20T02:55:55.490Z,1023.46
2019-04-20T02:56:57.459Z,1023.46
2019-04-20T02:59:02.492Z,1023.46
2019-04-20T03:00:49.290Z,1023.45
2019-04-20T03:01:43.498Z,1023.45
2019-04-20T03:02:40.897Z,1023.45
2019-04-20T03:03:32.405Z,1023.49
2019-04-20T03:04:34.136Z,1023.47
2019-04-20T03:05:33.152Z,1023.47
2019-04-20T03:06:33.053Z,1023.45
2019-04-20T03:07:34.312Z,1023.49
2019-04-20T03:08:38.242Z,1023.49
2019-04-20T03:09:44.428Z,1023.48
2019-04-20T03:10:46.342Z,1023.49
2019-04-20T03:11:55.361Z,1023.48
2019-04-20T03:12:45.988Z,1023.49
2019-04-20T03:13:46.007Z,1023.51
2019-04-20T03:14:39.693Z,1023.46
2019-04-20T03:15:42.308Z,1023.50
2019-04-20T03:16:41.205Z,1023.49
2019-04-20T03:17:46.365Z,1023.44
2019-04-20T03:18:41.568Z,1023.47
2019-04-20T03:19:40.153Z,1023.46
2019-04-20T03:20:41.652Z,1023.46
2019-04-20T03:21:45.467Z,1023.44
2019-04-20T03:23:05.456Z,1023.44
2019-04-20T03:23:49.987Z,1023.44
2019-04-20T03:24:54.097Z,1023.44
2019-04-20T03:25:45.458Z,1023.45
2019-04-20T03:26:41.950Z,1023.44
2019-04-20T03:27:37.160Z,1023.40
2019-04-20T03:28:40.140Z,1023.46
2019-04-20T03:29:40.806Z,1023.44
2019-04-20T03:32:03.933Z,1023.40
2019-04-20T03:33:06.810Z,1023.38
2019-04-20T03:35:03.952Z,1023.40
2019-04-20T03:35:55.197Z,1023.41
2019-04-20T03:36:49.741Z,1023.42
2019-04-20T03:37:42.595Z,1023.44
2019-04-20T03:38:42.260Z,1023.43
2019-04-20T03:39:37.621Z,1023.42
2019-04-20T03:40:37.578Z,1023.44
2019-04-20T03:41:28.244Z,1023.44
2019-04-20T03:42:22.323Z,1023.44
2019-04-20T03:43:22.258Z,1023.43
2019-04-20T03:44:26.452Z,1023.48
2019-04-20T03:45:24.751Z,1023.45
2019-04-20T03:46:30.974Z,1023.44
2019-04-20T03:47:31.466Z,1023.44
2019-04-20T03:48:41.320Z,1023.44
2019-04-20T03:49:52.158Z,1023.46
2019-04-20T03:50:41.157Z,1023.49
2019-04-20T03:51:40.015Z,1023.45
2019-04-20T03:52:40.357Z,1023.48
2019-04-20T03:53:39.509Z,1023.48
2019-04-20T03:54:34.588Z,1023.47
2019-04-20T03:55:40.807Z,1023.48
2019-04-20T03:56:42.266Z,1023.48
2019-04-20T03:57:49.527Z,1023.45
2019-04-20T03:58:43.633Z,1023.47
2019-04-20T03:59:43.713Z,1023.44
2019-04-20T04:00:35.977Z,1023.45
2019-04-20T04:02:04.559Z,1023.41
2019-04-20T04:03:00.381Z,1023.46
2019-04-20T04:03:47.230Z,1023.47
2019-04-20T04:04:45.552Z,1023.43
2019-04-20T04:05:36.879Z,1023.41
2019-04-20T04:06:33.118Z,1023.39
2019-04-20T04:07:30.388Z,1023.41
2019-04-20T04:08:30.336Z,1023.45
2019-04-20T04:09:32.959Z,1023.46
2019-04-20T04:10:33.717Z,1023.45
2019-04-20T04:11:38.157Z,1023.43
2019-04-20T04:12:29.943Z,1023.46
2019-04-20T04:13:22.905Z,1023.47
2019-04-20T04:14:21.968Z,1023.49
2019-04-20T04:15:23.036Z,1023.48
2019-04-20T04:16:22.701Z,1023.48
2019-04-20T04:17:29.673Z,1023.46
2019-04-20T04:18:28.072Z,1023.44
2019-04-20T04:19:28.445Z,1023.46
2019-04-20T04:20:23.088Z,1023.47
2019-04-20T04:21:36.968Z,1023.49
2019-04-20T04:22:42.084Z,1023.49
2019-04-20T04:23:39.325Z,1023.52
2019-04-20T04:24:31.630Z,1023.47
2019-04-20T04:25:33.535Z,1023.53
2019-04-20T04:26:36.716Z,1023.49
2019-04-20T04:27:44.373Z,1023.52
2019-04-20T04:28:39.699Z,1023.53
2019-04-20T04:29:43.035Z,1023.55
2019-04-20T04:30:33.018Z,1023.57
2019-04-20T04:31:45.709Z,1023.56
2019-04-20T04:33:06.971Z,1023.60
2019-04-20T04:34:41.552Z,1023.56
2019-04-20T04:35:35.013Z,1023.59
2019-04-20T04:36:40.444Z,1023.58
2019-04-20T04:37:40.747Z,1023.59
2019-04-20T04:38:41.929Z,1023.61
2019-04-20T04:39:43.083Z,1023.61
2019-04-20T04:40:49.483Z,1023.62
2019-04-20T04:41:43.943Z,1023.64
2019-04-20T04:42:42.270Z,1023.64
2019-04-20T04:43:39.987Z,1023.67
2019-04-20T04:44:35.644Z,1023.69
2019-04-20T04:45:25.524Z,1023.68
2019-04-20T04:46:22.689Z,1023.65
2019-04-20T04:47:21.895Z,1023.69
2019-04-20T04:48:28.249Z,1023.67
2019-04-20T04:49:28.478Z,1023.68
2019-04-20T04:50:24.842Z,1023.69
2019-04-20T04:51:27.818Z,1023.71
2019-04-20T04:52:28.749Z,1023.68
2019-04-20T04:53:31.333Z,1023.68
2019-04-20T04:54:28.810Z,1023.67
2019-04-20T04:55:32.733Z,1023.70
2019-04-20T04:56:23.978Z,1023.68
2019-04-20T04:57:22.253Z,1023.73
2019-04-20T04:58:21.652Z,1023.69
2019-04-20T04:59:21.660Z,1023.73
2019-04-20T05:00:25.827Z,1023.70
2019-04-20T05:01:26.033Z,1023.69
2019-04-20T05:02:29.783Z,1023.70
2019-04-20T05:03:38.774Z,1023.73
2019-04-20T05:04:43.088Z,1023.72
2019-04-20T05:05:47.309Z,1023.73
2019-04-20T05:06:35.038Z,1023.75
2019-04-20T05:07:36.789Z,1023.78
2019-04-20T05:08:27.394Z,1023.79
2019-04-20T05:09:22.658Z,1023.74
2019-04-20T05:10:22.388Z,1023.78
2019-04-20T05:11:21.779Z,1023.77
2019-04-20T05:12:24.275Z,1023.77
2019-04-20T05:13:21.926Z,1023.81
2019-04-20T05:14:27.075Z,1023.78
2019-04-20T05:15:37.392Z,1023.82
2019-04-20T05:16:40.914Z,1023.81
2019-04-20T05:17:43.834Z,1023.80
2019-04-20T05:18:47.875Z,1023.81
2019-04-20T05:19:45.789Z,1023.83
2019-04-20T05:20:42.624Z,1023.83
2019-04-20T05:21:49.986Z,1023.85
2019-04-20T05:22:43.968Z,1023.86
2019-04-20T05:23:35.431Z,1023.83
2019-04-20T05:24:33.774Z,1023.88
2019-04-20T05:25:36.667Z,1023.88
2019-04-20T05:26:45.968Z,1023.88
2019-04-20T05:27:39.142Z,1023.89
2019-04-20T05:28:33.490Z,1023.90
2019-04-20T05:29:25.489Z,1023.90
2019-04-20T05:30:22.409Z,1023.87
2019-04-20T05:31:23.511Z,1023.90
2019-04-20T05:32:34.874Z,1023.88
2019-04-20T05:33:30.295Z,1023.87
2019-04-20T05:34:50.009Z,1023.89
2019-04-20T05:35:47.211Z,1023.89
2019-04-20T05:36:41.601Z,1023.85
2019-04-20T05:37:51.314Z,1023.85
2019-04-20T05:38:52.061Z,1023.84
2019-04-20T05:39:44.420Z,1023.83
2019-04-20T05:40:38.941Z,1023.82
2019-04-20T05:41:38.655Z,1023.83
2019-04-20T05:42:44.178Z,1023.83
2019-04-20T05:43:38.828Z,1023.84
2019-04-20T05:44:44.347Z,1023.83
2019-04-20T05:45:35.364Z,1023.83
2019-04-20T05:46:42.399Z,1023.83
2019-04-20T05:47:41.464Z,1023.85
2019-04-20T05:48:48.736Z,1023.84
2019-04-20T05:49:34.586Z,1023.81
2019-04-20T05:50:42.375Z,1023.79
2019-04-20T05:51:40.957Z,1023.81
2019-04-20T05:52:50.433Z,1023.79
2019-04-20T05:53:45.282Z,1023.80
2019-04-20T05:54:49.311Z,1023.86
2019-04-20T05:55:46.751Z,1023.80
2019-04-20T05:57:00.789Z,1023.81
2019-04-20T05:57:42.446Z,1023.85
2019-04-20T05:58:40.546Z,1023.83
2019-04-20T05:59:45.026Z,1023.82
2019-04-20T06:00:49.730Z,1023.77
2019-04-20T06:01:45.254Z,1023.80
2019-04-20T06:02:44.097Z,1023.82
2019-04-20T06:03:38.188Z,1023.83
2019-04-20T06:04:54.559Z,1023.86
2019-04-20T06:05:48.754Z,1023.88
2019-04-20T06:06:45.314Z,1023.88
2019-04-20T06:07:42.013Z,1023.88
2019-04-20T06:08:51.608Z,1023.89
2019-04-20T06:09:39.997Z,1023.92
2019-04-20T06:10:45.245Z,1023.92
2019-04-20T06:11:57.503Z,1023.91
2019-04-20T06:12:40.362Z,1023.91
2019-04-20T06:13:33.677Z,1023.90
2019-04-20T06:14:39.490Z,1023.93
2019-04-20T06:15:39.277Z,1023.91
2019-04-20T06:16:46.831Z,1023.89
2019-04-20T06:17:39.306Z,1023.90
2019-04-20T06:18:35.512Z,1023.87
2019-04-20T06:19:42.150Z,1023.89
2019-04-20T06:20:45.339Z,1023.94
2019-04-20T06:21:45.725Z,1023.86
2019-04-20T06:22:42.830Z,1023.89
2019-04-20T06:23:47.594Z,1023.96
2019-04-20T06:24:47.849Z,1023.94
2019-04-20T06:26:01.490Z,1023.95
2019-04-20T06:26:49.003Z,1023.93
2019-04-20T06:27:46.072Z,1023.94
2019-04-20T06:28:37.752Z,1023.99
2019-04-20T06:29:42.667Z,1023.98
2019-04-20T06:30:34.851Z,1024.01
2019-04-20T06:31:40.937Z,1023.99
2019-04-20T06:32:40.407Z,1024.03
2019-04-20T06:34:08.876Z,1024.01
2019-04-20T06:34:46.583Z,1024.00
2019-04-20T06:36:05.997Z,1024.01
2019-04-20T06:36:57.244Z,1024.02
2019-04-20T06:37:44.167Z,1024.05
2019-04-20T06:38:58.841Z,1024.08
2019-04-20T06:39:44.831Z,1024.07
2019-04-20T06:42:03.319Z,1024.08
2019-04-20T06:42:42.175Z,1024.12
2019-04-20T06:43:50.452Z,1024.12
2019-04-20T06:45:02.197Z,1024.09
2019-04-20T06:45:51.068Z,1024.07
2019-04-20T06:46:46.718Z,1024.09
2019-04-20T06:47:46.116Z,1024.10
2019-04-20T06:48:46.118Z,1024.13
2019-04-20T06:49:56.780Z,1024.17
2019-04-20T06:50:41.516Z,1024.20
2019-04-20T06:51:42.507Z,1024.27
2019-04-20T06:52:38.464Z,1024.25
2019-04-20T06:53:45.039Z,1024.29
2019-04-20T06:54:42.149Z,1024.32
2019-04-20T06:55:51.192Z,1024.32
2019-04-20T06:56:45.528Z,1024.35
2019-04-20T06:57:54.708Z,1024.35
2019-04-20T06:59:42.936Z,1024.39
2019-04-20T07:00:42.262Z,1024.37
2019-04-20T07:01:48.712Z,1024.32
2019-04-20T07:02:56.374Z,1024.26
2019-04-20T07:03:58.813Z,1024.20
2019-04-20T07:04:57.969Z,1024.23
2019-04-20T07:05:39.053Z,1024.24
2019-04-20T07:06:50.588Z,1024.21
2019-04-20T07:07:43.220Z,1024.25
2019-04-20T07:08:58.709Z,1024.29
2019-04-20T07:10:10.546Z,1024.29
2019-04-20T07:10:43.958Z,1024.27
2019-04-20T07:11:42.632Z,1024.30
2019-04-20T07:12:37.944Z,1024.31
2019-04-20T07:13:30.885Z,1024.28
2019-04-20T07:14:35.888Z,1024.28
2019-04-20T07:15:36.502Z,1024.29
2019-04-20T07:16:43.261Z,1024.36
2019-04-20T07:17:48.753Z,1024.41
2019-04-20T07:18:43.718Z,1024.44
2019-04-20T07:19:41.839Z,1024.48
2019-04-20T07:20:51.173Z,1024.54
2019-04-20T07:21:57.341Z,1024.52
2019-04-20T07:22:37.537Z,1024.49
2019-04-20T07:23:51.676Z,1024.48
2019-04-20T07:24:46.274Z,1024.41
2019-04-20T07:25:42.304Z,1024.35
2019-04-20T07:26:44.526Z,1024.32
2019-04-20T07:27:41.466Z,1024.34
2019-04-20T07:28:47.311Z,1024.35
2019-04-20T07:29:47.443Z,1024.35
2019-04-20T07:30:42.399Z,1024.33
2019-04-20T07:31:39.369Z,1024.30
2019-04-20T07:32:48.541Z,1024.33
2019-04-20T07:33:46.422Z,1024.28
2019-04-20T07:34:42.264Z,1024.28
2019-04-20T07:35:44.844Z,1024.26
2019-04-20T07:36:54.112Z,1024.25
2019-04-20T07:39:04.240Z,1024.24
2019-04-20T07:39:40.775Z,1024.27
2019-04-20T07:40:38.170Z,1024.26
2019-04-20T07:41:50.453Z,1024.28
2019-04-20T07:43:57.459Z,1024.27
2019-04-20T07:44:48.645Z,1024.32
2019-04-20T07:45:36.444Z,1024.32
2019-04-20T07:46:55.122Z,1024.27
2019-04-20T07:48:01.735Z,1024.30
2019-04-20T07:48:43.131Z,1024.33
2019-04-20T07:49:42.095Z,1024.31
2019-04-20T07:50:36.229Z,1024.28
2019-04-20T07:51:27.514Z,1024.26
2019-04-20T07:52:35.836Z,1024.28
2019-04-20T07:53:37.906Z,1024.26
2019-04-20T07:54:50.803Z,1024.27
2019-04-20T07:56:42.537Z,1024.21
2019-04-20T07:57:37.699Z,1024.25
2019-04-20T07:58:31.672Z,1024.25
2019-04-20T07:59:31.480Z,1024.24
2019-04-20T08:00:48.620Z,1024.24
2019-04-20T08:01:45.149Z,1024.30
2019-04-20T08:02:55.683Z,1024.29
2019-04-20T08:03:48.768Z,1024.38
2019-04-20T08:04:36.738Z,1024.42
2019-04-20T08:05:33.588Z,1024.41
2019-04-20T08:06:28.938Z,1024.39
2019-04-20T08:07:36.757Z,1024.39
2019-04-20T08:08:40.658Z,1024.32
2019-04-20T08:09:32.843Z,1024.35
2019-04-20T08:10:34.024Z,1024.39
2019-04-20T08:11:37.999Z,1024.41
2019-04-20T08:12:43.767Z,1024.41
2019-04-20T08:13:49.392Z,1024.40
2019-04-20T08:14:48.659Z,1024.34
2019-04-20T08:15:54.124Z,1024.32
2019-04-20T08:16:53.271Z,1024.26
2019-04-20T08:17:52.565Z,1024.25
2019-04-20T08:18:47.005Z,1024.27
2019-04-20T08:19:39.931Z,1024.25
2019-04-20T08:20:42.868Z,1024.27
2019-04-20T08:21:40.590Z,1024.28
2019-04-20T08:22:41.051Z,1024.32
2019-04-20T08:23:38.884Z,1024.35
2019-04-20T08:24:37.498Z,1024.38
2019-04-20T08:25:30.637Z,1024.33
2019-04-20T08:26:27.090Z,1024.23
2019-04-20T08:27:21.307Z,1024.19
2019-04-20T08:28:29.137Z,1024.17
2019-04-20T08:29:31.653Z,1024.16
2019-04-20T08:30:33.867Z,1024.20
2019-04-20T08:31:38.582Z,1024.24
2019-04-20T08:32:38.816Z,1024.26
2019-04-20T08:33:44.683Z,1024.30
2019-04-20T08:34:44.375Z,1024.28
2019-04-20T08:35:48.150Z,1024.39
2019-04-20T08:36:39.311Z,1024.46
2019-04-20T08:37:45.951Z,1024.42
2019-04-20T08:39:51.117Z,1024.30
2019-04-20T08:40:46.350Z,1024.29
2019-04-20T08:41:48.379Z,1024.28
2019-04-20T08:42:49.726Z,1024.25
2019-04-20T08:43:47.172Z,1024.22
2019-04-20T08:44:53.740Z,1024.19
2019-04-20T08:45:43.118Z,1024.12
2019-04-20T08:46:53.350Z,1024.11
2019-04-20T08:47:49.919Z,1024.18
2019-04-20T08:48:40.987Z,1024.25
2019-04-20T08:49:45.505Z,1024.20
2019-04-20T08:50:44.046Z,1024.13
2019-04-20T08:51:49.614Z,1024.14
2019-04-20T08:53:03.573Z,1024.05
2019-04-20T08:53:45.097Z,1024.09
2019-04-20T08:54:34.553Z,1024.06
2019-04-20T08:55:37.420Z,1024.05
2019-04-20T08:56:31.955Z,1024.04
2019-04-20T08:57:20.812Z,1024.08
2019-04-20T08:58:20.811Z,1024.00
2019-04-20T08:59:21.106Z,1024.02
2019-04-20T09:00:29.395Z,1024.00
2019-04-20T09:01:28.266Z,1024.00
2019-04-20T09:02:22.105Z,1023.99
2019-04-20T09:03:27.417Z,1023.92
2019-04-20T09:04:33.051Z,1023.97
2019-04-20T09:05:35.884Z,1023.92
2019-04-20T09:06:37.587Z,1023.91
2019-04-20T09:07:25.137Z,1023.96
2019-04-20T09:08:26.039Z,1023.94
2019-04-20T09:10:03.484Z,1023.95
2019-04-20T09:10:49.583Z,1023.92
2019-04-20T09:11:46.508Z,1023.94
2019-04-20T09:12:35.543Z,1023.92
2019-04-20T09:13:29.969Z,1023.90
2019-04-20T09:14:21.700Z,1023.89
2019-04-20T09:15:21.159Z,1023.88
2019-04-20T09:16:26.977Z,1023.88
2019-04-20T09:17:27.317Z,1023.90
2019-04-20T09:18:26.276Z,1023.89
2019-04-20T09:19:29.903Z,1023.85
2019-04-20T09:20:31.913Z,1023.85
2019-04-20T09:21:29.714Z,1023.85
2019-04-20T09:22:28.240Z,1023.82
2019-04-20T09:23:36.790Z,1023.81
2019-04-20T09:24:47.484Z,1023.84
2019-04-20T09:26:06.244Z,1023.79
2019-04-20T09:26:37.584Z,1023.79
2019-04-20T09:27:33.016Z,1023.82
2019-04-20T09:28:30.897Z,1023.80
2019-04-20T09:29:33.402Z,1023.80
2019-04-20T09:30:34.865Z,1023.82
2019-04-20T09:31:35.882Z,1023.81
2019-04-20T09:32:35.461Z,1023.86
2019-04-20T09:33:36.375Z,1023.84
2019-04-20T09:34:45.281Z,1023.84
2019-04-20T09:35:39.045Z,1023.83
2019-04-20T09:36:32.560Z,1023.82
2019-04-20T09:37:41.218Z,1023.80
2019-04-20T09:38:36.885Z,1023.80
2019-04-20T09:39:30.440Z,1023.81
2019-04-20T09:40:44.881Z,1023.82
2019-04-20T09:41:42.274Z,1023.78
2019-04-20T09:42:20.986Z,1023.81
2019-04-20T09:43:21.778Z,1023.77
2019-04-20T09:44:24.555Z,1023.80
2019-04-20T09:45:27.393Z,1023.73
2019-04-20T09:46:22.149Z,1023.73
2019-04-20T09:47:27.445Z,1023.74
2019-04-20T09:48:29.767Z,1023.73
2019-04-20T09:49:35.316Z,1023.72
2019-04-20T09:50:38.684Z,1023.73
2019-04-20T09:51:40.120Z,1023.73
2019-04-20T09:52:32.243Z,1023.72
2019-04-20T09:53:34.974Z,1023.73
2019-04-20T09:54:40.443Z,1023.70
2019-04-20T09:55:32.897Z,1023.70
2019-04-20T09:56:36.986Z,1023.74
2019-04-20T09:57:39.517Z,1023.74
2019-04-20T09:58:30.913Z,1023.71
2019-04-20T09:59:37.175Z,1023.73
2019-04-20T10:00:36.951Z,1023.72
2019-04-20T10:01:31.249Z,1023.66
2019-04-20T10:02:24.857Z,1023.70
2019-04-20T10:03:20.975Z,1023.67
2019-04-20T10:04:21.631Z,1023.68
2019-04-20T10:05:20.791Z,1023.65
2019-04-20T10:06:24.777Z,1023.64
2019-04-20T10:07:24.261Z,1023.64
2019-04-20T10:08:21.877Z,1023.63
2019-04-20T10:09:29.515Z,1023.64
2019-04-20T10:10:29.319Z,1023.59
2019-04-20T10:11:21.440Z,1023.60
2019-04-20T10:12:21.870Z,1023.55
2019-04-20T10:13:21.564Z,1023.54
2019-04-20T10:14:20.787Z,1023.48
2019-04-20T10:15:23.439Z,1023.49
2019-04-20T10:16:21.873Z,1023.48
2019-04-20T10:17:20.798Z,1023.44
2019-04-20T10:18:21.903Z,1023.45
2019-04-20T10:19:27.820Z,1023.44
2019-04-20T10:20:27.641Z,1023.48
2019-04-20T10:21:20.769Z,1023.45
2019-04-20T10:22:20.776Z,1023.48
2019-04-20T10:23:20.796Z,1023.46
2019-04-20T10:24:20.936Z,1023.48
2019-04-20T10:25:20.784Z,1023.48
2019-04-20T10:26:20.776Z,1023.47
2019-04-20T10:27:20.981Z,1023.42
2019-04-20T10:28:21.557Z,1023.45
2019-04-20T10:29:21.656Z,1023.46
2019-04-20T10:30:20.813Z,1023.43
2019-04-20T10:31:20.795Z,1023.42
2019-04-20T10:32:25.128Z,1023.44
2019-04-20T10:33:21.699Z,1023.40
2019-04-20T10:34:23.729Z,1023.46
2019-04-20T10:35:21.349Z,1023.42
2019-04-20T10:36:21.550Z,1023.43
2019-04-20T10:37:21.744Z,1023.44
2019-04-20T10:38:21.455Z,1023.42
2019-04-20T10:39:20.771Z,1023.46
2019-04-20T10:40:35.786Z,1023.40
2019-04-20T10:41:33.629Z,1023.43
2019-04-20T10:42:20.770Z,1023.44
2019-04-20T10:43:21.880Z,1023.42
2019-04-20T10:44:20.973Z,1023.40
2019-04-20T10:45:21.266Z,1023.38
2019-04-20T10:46:20.818Z,1023.41
2019-04-20T10:47:21.149Z,1023.39
2019-04-20T10:48:21.424Z,1023.38
2019-04-20T10:49:20.769Z,1023.41
2019-04-20T10:50:20.970Z,1023.42
2019-04-20T10:51:21.800Z,1023.42
2019-04-20T10:52:20.775Z,1023.40
2019-04-20T10:53:21.820Z,1023.36
2019-04-20T10:54:20.766Z,1023.35
2019-04-20T10:55:20.973Z,1023.35
2019-04-20T10:56:21.364Z,1023.36
2019-04-20T10:57:21.628Z,1023.29
2019-04-20T10:58:21.883Z,1023.33
2019-04-20T10:59:21.493Z,1023.36
2019-04-20T11:00:21.622Z,1023.32
2019-04-20T11:01:21.895Z,1023.34
2019-04-20T11:02:21.587Z,1023.35
2019-04-20T11:03:20.976Z,1023.33
2019-04-20T11:04:20.927Z,1023.32
2019-04-20T11:05:20.787Z,1023.37
2019-04-20T11:06:20.777Z,1023.39
2019-04-20T11:07:20.829Z,1023.35
2019-04-20T11:08:20.773Z,1023.36
2019-04-20T11:09:20.787Z,1023.36
2019-04-20T11:10:25.725Z,1023.41
2019-04-20T11:11:26.464Z,1023.38
2019-04-20T11:12:22.065Z,1023.38
2019-04-20T11:13:21.448Z,1023.38
2019-04-20T11:14:27.518Z,1023.41
2019-04-20T11:15:21.016Z,1023.39
2019-04-20T11:16:20.788Z,1023.41
2019-04-20T11:17:20.793Z,1023.41
2019-04-20T11:18:21.754Z,1023.36
2019-04-20T11:19:21.232Z,1023.39
2019-04-20T11:20:21.379Z,1023.38
2019-04-20T11:21:21.569Z,1023.36
2019-04-20T11:22:22.151Z,1023.31
2019-04-20T11:23:20.793Z,1023.31
2019-04-20T11:24:20.778Z,1023.29
2019-04-20T11:25:22.034Z,1023.26
2019-04-20T11:26:22.039Z,1023.31
2019-04-20T11:27:20.784Z,1023.31
2019-04-20T11:28:21.970Z,1023.25
2019-04-20T11:29:22.003Z,1023.26
2019-04-20T11:30:20.782Z,1023.23
2019-04-20T11:31:22.006Z,1023.24
2019-04-20T11:32:22.220Z,1023.19
2019-04-20T11:33:22.152Z,1023.21
2019-04-20T11:34:23.663Z,1023.18
2019-04-20T11:35:28.115Z,1023.18
2019-04-20T11:36:21.277Z,1023.19
2019-04-20T11:37:21.330Z,1023.15
2019-04-20T11:38:22.001Z,1023.14
2019-04-20T11:39:21.023Z,1023.11
2019-04-20T11:40:21.175Z,1023.14
2019-04-20T11:41:25.519Z,1023.07
2019-04-20T11:42:21.715Z,1023.08
2019-04-20T11:43:21.837Z,1023.04
2019-04-20T11:44:20.987Z,1023.01
2019-04-20T11:45:20.787Z,1023.00
2019-04-20T11:46:20.784Z,1022.98
2019-04-20T11:47:21.716Z,1022.99
2019-04-20T11:48:21.294Z,1022.99
2019-04-20T11:49:21.597Z,1023.02
2019-04-20T11:50:21.907Z,1022.96
2019-04-20T11:51:21.543Z,1022.96
2019-04-20T11:52:23.113Z,1022.95
2019-04-20T11:53:21.514Z,1022.99
2019-04-20T11:54:22.013Z,1022.94
2019-04-20T11:55:22.304Z,1022.93
2019-04-20T11:56:26.114Z,1022.90
2019-04-20T11:57:21.570Z,1022.85
2019-04-20T11:58:21.792Z,1022.86
2019-04-20T11:59:21.132Z,1022.83
2019-04-20T12:00:23.477Z,1022.84
2019-04-20T12:01:23.647Z,1022.88
2019-04-20T12:02:26.930Z,1022.86
2019-04-20T12:03:24.860Z,1022.86
2019-04-20T12:04:32.763Z,1022.83
2019-04-20T12:05:30.526Z,1022.81
2019-04-20T12:06:21.190Z,1022.81
2019-04-20T12:07:20.805Z,1022.81
2019-04-20T12:08:20.832Z,1022.78
2019-04-20T12:09:21.561Z,1022.75
2019-04-20T12:10:22.728Z,1022.78
2019-04-20T12:11:31.950Z,1022.77
2019-04-20T12:12:30.075Z,1022.74
2019-04-20T12:13:20.802Z,1022.72
2019-04-20T12:14:21.002Z,1022.73
2019-04-20T12:15:20.798Z,1022.75
2019-04-20T12:16:21.518Z,1022.75
2019-04-20T12:17:21.776Z,1022.71
2019-04-20T12:18:20.802Z,1022.71
2019-04-20T12:19:20.798Z,1022.71
2019-04-20T12:20:21.003Z,1022.74